createdAt,value
2019-04-26T00:01:27.758Z,3.98
2019-04-26T00:03:57.469Z,3.67
2019-04-26T00:06:27.546Z,3.37
2019-04-26T00:09:06.150Z,3.35
2019-04-26T00:11:46.412Z,3.25
2019-04-26T00:14:23.474Z,3.52
2019-04-26T00:16:54.937Z,3.35
2019-04-26T00:19:24.953Z,3.35
2019-04-26T00:21:55.218Z,3.40
2019-04-26T00:24:25.229Z,4.10
2019-04-26T00:26:54.992Z,3.55
2019-04-26T00:29:24.515Z,3.30
2019-04-26T00:31:54.539Z,3.67
2019-04-26T00:34:24.190Z,2.92
2019-04-26T00:36:53.900Z,3.12
2019-04-26T00:39:25.022Z,3.10
2019-04-26T00:41:55.185Z,3.17
2019-04-26T00:44:24.947Z,2.70
2019-04-26T00:46:57.542Z,2.80
2019-04-26T00:49:28.882Z,3.10
2019-04-26T00:51:59.419Z,3.10
2019-04-26T00:54:29.876Z,3.25
2019-04-26T00:57:00.428Z,3.20
2019-04-26T00:59:32.704Z,3.08
2019-04-26T01:02:10.136Z,3.17
2019-04-26T01:04:39.878Z,3.02
2019-04-26T01:07:09.598Z,2.83
2019-04-26T01:09:39.331Z,3.05
2019-04-26T01:12:09.059Z,2.60
2019-04-26T01:14:38.817Z,2.98
2019-04-26T01:17:08.494Z,2.98
2019-04-26T01:19:40.734Z,3.40
2019-04-26T01:22:18.383Z,3.55
2019-04-26T01:24:51.084Z,3.20
2019-04-26T01:27:23.845Z,3.83
2019-04-26T01:29:57.491Z,3.20
2019-04-26T01:32:29.958Z,3.30
2019-04-26T01:35:00.071Z,3.50
2019-04-26T01:37:31.324Z,3.65
2019-04-26T01:40:06.578Z,3.90
2019-04-26T01:42:45.451Z,3.50
2019-04-26T01:45:17.473Z,3.70
2019-04-26T01:47:50.579Z,3.40
2019-04-26T01:50:24.028Z,3.50
2019-04-26T01:52:54.848Z,4.25
2019-04-26T01:55:26.982Z,3.92
2019-04-26T01:57:58.171Z,3.80
2019-04-26T02:00:29.600Z,3.98
2019-04-26T02:03:00.916Z,4.08
2019-04-26T02:05:30.741Z,3.80
2019-04-26T02:08:00.783Z,4.05
2019-04-26T02:10:30.770Z,3.80
2019-04-26T02:13:01.499Z,3.72
2019-04-26T02:15:33.632Z,3.87
2019-04-26T02:21:04.934Z,3.62
2019-04-26T02:23:42.331Z,4.83
2019-04-26T02:26:30.402Z,3.80
2019-04-26T02:29:00.340Z,4.70
2019-04-26T02:31:31.434Z,3.85
2019-04-26T02:34:03.639Z,3.55
2019-04-26T02:36:54.626Z,3.72
2019-04-26T02:39:22.942Z,3.87
2019-04-26T02:41:55.456Z,3.58
2019-04-26T02:44:31.320Z,4.62
2019-04-26T02:47:49.423Z,3.98
2019-04-26T02:50:22.753Z,3.62
2019-04-26T02:53:25.546Z,3.80
2019-04-26T02:56:16.732Z,3.40
2019-04-26T02:59:03.315Z,3.50
2019-04-26T03:01:35.964Z,3.60
2019-04-26T03:04:05.420Z,3.70
2019-04-26T03:06:37.259Z,3.85
2019-04-26T03:09:08.159Z,3.30
2019-04-26T03:12:02.137Z,2.90
2019-04-26T03:14:41.984Z,3.92
2019-04-26T03:17:17.564Z,3.90
2019-04-26T03:20:05.331Z,3.00
2019-04-26T03:22:59.821Z,2.72
2019-04-26T03:26:05.580Z,2.72
2019-04-26T03:29:02.356Z,3.10
2019-04-26T03:31:46.060Z,3.37
2019-04-26T03:34:14.505Z,3.52
2019-04-26T03:37:25.416Z,3.47
2019-04-26T03:40:44.601Z,3.05
2019-04-26T03:43:48.121Z,3.90
2019-04-26T03:46:39.052Z,3.30
2019-04-26T03:49:41.524Z,3.17
2019-04-26T03:52:52.293Z,3.40
2019-04-26T03:55:34.590Z,3.55
2019-04-26T03:59:02.484Z,3.40
2019-04-26T04:01:39.459Z,3.02
2019-04-26T04:04:29.984Z,3.83
2019-04-26T04:07:04.583Z,3.50
2019-04-26T04:09:35.888Z,3.10
2019-04-26T04:12:17.147Z,2.72
2019-04-26T04:15:15.561Z,2.90
2019-04-26T04:18:03.407Z,2.77
2019-04-26T04:21:15.426Z,3.12
2019-04-26T04:24:10.882Z,2.93
2019-04-26T04:27:14.356Z,3.10
2019-04-26T04:29:55.339Z,2.77
2019-04-26T04:32:49.794Z,2.90
2019-04-26T04:35:23.409Z,2.80
2019-04-26T04:38:34.401Z,2.65
2019-04-26T04:41:25.581Z,2.83
2019-04-26T04:44:30.521Z,3.00
2019-04-26T04:47:31.004Z,2.90
2019-04-26T04:50:17.253Z,2.80
2019-04-26T04:53:37.527Z,2.80
2019-04-26T04:56:39.424Z,4.20
2019-04-26T04:59:29.184Z,3.27
2019-04-26T05:02:08.272Z,2.80
2019-04-26T05:05:18.676Z,2.90
2019-04-26T05:08:29.850Z,2.83
2019-04-26T05:11:18.472Z,3.08
2019-04-26T05:14:05.450Z,2.70
2019-04-26T05:17:16.157Z,2.62
2019-04-26T05:19:53.407Z,3.00
2019-04-26T05:22:59.413Z,2.87
2019-04-26T05:26:37.586Z,2.27
2019-04-26T05:29:33.404Z,2.83
2019-04-26T05:32:44.049Z,2.72
2019-04-26T05:35:51.036Z,2.65
2019-04-26T05:38:40.843Z,3.15
2019-04-26T05:41:24.652Z,2.95
2019-04-26T05:44:24.958Z,2.33
2019-04-26T05:47:35.798Z,2.40
2019-04-26T05:50:59.324Z,2.20
2019-04-26T05:54:05.341Z,2.20
2019-04-26T05:56:59.455Z,2.67
2019-04-26T05:59:36.973Z,2.45
2019-04-26T06:02:47.792Z,2.33
2019-04-26T06:05:38.960Z,2.55
2019-04-26T06:08:31.187Z,2.42
2019-04-26T06:11:12.010Z,2.50
2019-04-26T06:14:00.205Z,2.45
2019-04-26T06:17:04.329Z,2.75
2019-04-26T06:20:06.339Z,2.75
2019-04-26T06:23:00.658Z,6.55
2019-04-26T06:25:42.897Z,2.83
2019-04-26T06:28:35.392Z,2.45
2019-04-26T06:34:11.914Z,2.60
2019-04-26T06:36:59.874Z,2.62
2019-04-26T06:39:43.153Z,2.50
2019-04-26T06:42:32.513Z,2.42
2019-04-26T06:45:43.229Z,2.60
2019-04-26T06:48:39.026Z,2.67
2019-04-26T06:51:32.156Z,2.65
2019-04-26T06:54:17.031Z,2.40
2019-04-26T06:57:14.882Z,2.70
2019-04-26T07:00:18.586Z,2.30
2019-04-26T07:03:11.189Z,2.12
2019-04-26T07:05:51.893Z,2.90
2019-04-26T07:08:56.421Z,2.60
2019-04-26T07:12:02.957Z,2.40
2019-04-26T07:15:12.812Z,2.42
2019-04-26T07:18:22.256Z,2.58
2019-04-26T07:21:34.609Z,2.30
2019-04-26T07:25:17.811Z,2.30
2019-04-26T07:28:25.535Z,2.60
2019-04-26T07:31:15.560Z,2.37
2019-04-26T07:34:12.690Z,2.10
2019-04-26T07:37:28.443Z,2.50
2019-04-26T07:40:26.834Z,2.52
2019-04-26T07:43:32.825Z,2.40
2019-04-26T07:46:51.321Z,2.30
2019-04-26T07:49:48.224Z,2.40
2019-04-26T07:52:57.594Z,2.40
2019-04-26T07:56:05.374Z,2.22
2019-04-26T07:59:22.610Z,2.45
2019-04-26T08:02:21.397Z,2.70
2019-04-26T08:04:59.294Z,2.42
2019-04-26T08:07:33.801Z,2.40
2019-04-26T08:10:17.130Z,2.10
2019-04-26T08:12:51.998Z,1.98
2019-04-26T08:15:30.861Z,2.37
2019-04-26T08:18:20.475Z,3.27
2019-04-26T08:20:54.456Z,2.20
2019-04-26T08:23:41.949Z,2.50
2019-04-26T08:26:09.152Z,2.45
2019-04-26T08:28:41.991Z,2.35
2019-04-26T08:31:20.021Z,2.45
2019-04-26T08:33:52.445Z,2.30
2019-04-26T08:36:27.125Z,2.40
2019-04-26T08:39:01.679Z,2.40
2019-04-26T08:41:35.280Z,2.20
2019-04-26T08:44:11.152Z,2.30
2019-04-26T08:46:53.974Z,2.45
2019-04-26T08:49:31.323Z,2.30
2019-04-26T08:52:13.869Z,2.20
2019-04-26T08:54:40.301Z,2.02
2019-04-26T08:57:12.503Z,2.20
2019-04-26T08:59:49.594Z,2.05
2019-04-26T09:02:36.231Z,2.67
2019-04-26T09:05:19.445Z,2.00
2019-04-26T09:07:53.373Z,2.17
2019-04-26T09:10:27.459Z,2.10
2019-04-26T09:13:00.787Z,2.22
2019-04-26T09:15:44.565Z,2.10
2019-04-26T09:18:15.048Z,2.08
2019-04-26T09:20:45.366Z,2.17
2019-04-26T09:23:23.098Z,2.12
2019-04-26T09:25:59.272Z,1.80
2019-04-26T09:28:47.200Z,1.85
2019-04-26T09:31:35.292Z,2.10
2019-04-26T09:34:15.756Z,2.20
2019-04-26T09:36:45.978Z,2.33
2019-04-26T09:39:16.959Z,2.12
2019-04-26T09:41:48.018Z,2.50
2019-04-26T09:44:22.630Z,2.15
2019-04-26T09:47:06.315Z,1.80
2019-04-26T09:49:42.310Z,2.33
2019-04-26T09:52:16.869Z,2.20
2019-04-26T09:54:47.225Z,2.20
2019-04-26T09:57:17.378Z,2.10
2019-04-26T09:59:47.642Z,1.80
2019-04-26T10:02:17.914Z,1.72
2019-04-26T10:04:48.212Z,2.65
2019-04-26T10:07:18.907Z,1.70
2019-04-26T10:09:56.002Z,1.80
2019-04-26T10:12:24.320Z,1.90
2019-04-26T10:14:56.293Z,1.65
2019-04-26T10:17:28.203Z,2.00
2019-04-26T10:19:58.489Z,2.33
2019-04-26T10:22:30.489Z,1.62
2019-04-26T10:25:02.508Z,1.90
2019-04-26T10:27:36.402Z,1.70
2019-04-26T10:30:11.538Z,1.80
2019-04-26T10:32:41.885Z,2.10
2019-04-26T10:35:12.322Z,1.77
2019-04-26T10:37:43.900Z,2.20
2019-04-26T10:40:15.144Z,2.10
2019-04-26T10:42:45.575Z,2.25
2019-04-26T10:45:16.417Z,2.05
2019-04-26T10:47:47.006Z,1.80
2019-04-26T10:50:17.849Z,1.60
2019-04-26T10:52:54.071Z,1.70
2019-04-26T10:55:21.492Z,1.70
2019-04-26T10:58:00.184Z,1.85
2019-04-26T11:00:32.041Z,1.95
2019-04-26T11:03:04.448Z,1.92
2019-04-26T11:05:35.086Z,1.70
2019-04-26T11:08:05.889Z,1.52
2019-04-26T11:10:48.594Z,1.47
2019-04-26T11:13:11.200Z,1.95
2019-04-26T11:15:43.044Z,1.70
2019-04-26T11:18:13.291Z,1.75
2019-04-26T11:20:45.595Z,1.40
2019-04-26T11:23:15.634Z,1.47
2019-04-26T11:25:47.208Z,1.90
2019-04-26T11:28:21.409Z,1.75
2019-04-26T11:33:21.159Z,1.27
2019-04-26T11:35:51.409Z,1.17
2019-04-26T11:38:22.052Z,1.20
2019-04-26T11:41:05.376Z,1.12
2019-04-26T11:46:03.719Z,1.50
2019-04-26T11:48:29.181Z,1.27
2019-04-26T11:50:58.108Z,1.62
2019-04-26T11:53:28.313Z,1.30
2019-04-26T11:56:04.387Z,1.32
2019-04-26T11:58:32.300Z,1.42
2019-04-26T12:01:04.305Z,1.80
2019-04-26T12:03:34.973Z,1.30
2019-04-26T12:06:06.563Z,1.22
2019-04-26T12:08:38.742Z,1.40
2019-04-26T12:13:40.151Z,1.35
2019-04-26T12:16:10.596Z,1.00
2019-04-26T12:18:44.239Z,1.10
2019-04-26T12:23:42.452Z,1.05
2019-04-26T12:26:17.335Z,1.40
2019-04-26T12:28:45.966Z,1.20
2019-04-26T12:31:16.127Z,1.20
2019-04-26T12:33:47.987Z,1.30
2019-04-26T12:36:18.340Z,1.65
2019-04-26T12:38:49.996Z,1.32
2019-04-26T12:41:30.056Z,1.17
2019-04-26T12:43:54.554Z,1.00
2019-04-26T12:46:43.201Z,1.12
2019-04-26T12:49:13.912Z,1.35
2019-04-26T12:51:47.314Z,1.15
2019-04-26T12:54:16.663Z,1.10
2019-04-26T12:56:47.149Z,1.27
2019-04-26T12:59:17.246Z,1.20
2019-04-26T13:01:48.198Z,1.22
2019-04-26T13:04:18.642Z,1.20
2019-04-26T13:06:50.410Z,1.12
2019-04-26T13:09:21.948Z,1.20
2019-04-26T13:12:09.961Z,1.55
2019-04-26T13:14:44.381Z,1.05
2019-04-26T13:17:24.675Z,1.37
2019-04-26T13:19:55.497Z,1.15
2019-04-26T13:22:25.856Z,1.40
2019-04-26T13:24:56.292Z,1.10
2019-04-26T13:27:26.794Z,1.30
2019-04-26T13:30:02.506Z,1.60
2019-04-26T13:32:29.348Z,1.25
2019-04-26T13:34:59.591Z,1.10
2019-04-26T13:37:32.203Z,1.20
2019-04-26T13:42:32.277Z,1.35
2019-04-26T13:45:04.366Z,1.60
2019-04-26T13:50:22.322Z,1.62
2019-04-26T13:52:51.333Z,1.60
2019-04-26T13:55:25.361Z,1.52
2019-04-26T13:57:55.965Z,1.20
2019-04-26T14:02:56.778Z,1.10
2019-04-26T14:05:27.889Z,1.30
2019-04-26T14:07:59.510Z,1.20
2019-04-26T14:10:30.108Z,1.07
2019-04-26T14:13:00.450Z,1.57
2019-04-26T14:15:30.914Z,1.12
2019-04-26T14:18:04.395Z,1.50
2019-04-26T14:20:34.935Z,1.32
2019-04-26T14:23:19.573Z,1.37
2019-04-26T14:26:01.146Z,1.42
2019-04-26T14:28:32.363Z,1.60
2019-04-26T14:31:02.720Z,2.10
2019-04-26T14:36:16.657Z,1.45
2019-04-26T14:38:40.055Z,1.10
2019-04-26T14:41:09.414Z,1.30
2019-04-26T14:43:41.625Z,1.52
2019-04-26T14:46:14.729Z,1.70
2019-04-26T14:49:00.643Z,1.67
2019-04-26T14:51:19.581Z,1.30
2019-04-26T14:53:50.047Z,1.35
2019-04-26T14:58:49.837Z,1.40
2019-04-26T15:01:22.564Z,1.35
2019-04-26T15:03:57.125Z,1.32
2019-04-26T15:06:27.529Z,1.32
2019-04-26T15:08:57.917Z,0.90
2019-04-26T15:11:28.247Z,1.10
2019-04-26T15:13:59.955Z,0.98
2019-04-26T15:16:30.157Z,1.00
2019-04-26T15:19:00.283Z,1.05
2019-04-26T15:21:31.764Z,0.95
2019-04-26T15:24:02.921Z,1.05
2019-04-26T15:29:04.514Z,1.20
2019-04-26T15:31:34.986Z,0.98
2019-04-26T15:34:05.460Z,0.90
2019-04-26T15:36:35.617Z,1.00
2019-04-26T15:39:13.632Z,1.32
2019-04-26T15:41:47.039Z,1.15
2019-04-26T15:44:20.285Z,1.10
2019-04-26T15:47:05.524Z,0.82
2019-04-26T15:49:39.372Z,0.90
2019-04-26T15:52:10.045Z,1.10
2019-04-26T15:54:40.306Z,1.00
2019-04-26T15:57:12.096Z,1.20
2019-04-26T15:59:43.031Z,1.20
2019-04-26T16:02:13.431Z,0.80
2019-04-26T16:04:47.353Z,0.98
2019-04-26T16:07:26.976Z,1.77
2019-04-26T16:09:53.366Z,0.90
2019-04-26T16:12:25.792Z,0.78
2019-04-26T16:14:54.930Z,1.42
2019-04-26T16:17:25.963Z,0.80
2019-04-26T16:20:15.420Z,1.03
2019-04-26T16:22:48.919Z,1.20
2019-04-26T16:25:17.920Z,1.10
2019-04-26T16:27:51.794Z,1.00
2019-04-26T16:30:28.519Z,1.10
2019-04-26T16:33:09.786Z,1.50
2019-04-26T16:35:42.040Z,1.17
2019-04-26T16:38:29.418Z,1.25
2019-04-26T16:41:00.204Z,0.95
2019-04-26T16:43:37.701Z,0.80
2019-04-26T16:46:02.624Z,0.98
2019-04-26T16:48:33.406Z,0.93
2019-04-26T16:51:08.304Z,0.90
2019-04-26T16:53:52.135Z,1.17
2019-04-26T16:58:45.053Z,0.72
2019-04-26T17:01:12.401Z,0.88
2019-04-26T17:03:47.963Z,0.80
2019-04-26T17:06:16.367Z,0.98
2019-04-26T17:08:49.949Z,0.80
2019-04-26T17:11:20.003Z,0.90
2019-04-26T17:13:54.552Z,1.07
2019-04-26T17:16:25.677Z,1.00
2019-04-26T17:18:59.538Z,1.12
2019-04-26T17:24:13.006Z,1.40
2019-04-26T17:26:50.752Z,1.20
2019-04-26T17:29:22.624Z,1.47
2019-04-26T17:31:54.578Z,1.20
2019-04-26T17:34:28.971Z,1.50
2019-04-26T17:36:58.163Z,1.37
2019-04-26T17:39:30.301Z,1.17
2019-04-26T17:42:01.155Z,1.20
2019-04-26T17:44:34.003Z,1.35
2019-04-26T17:49:35.672Z,1.80
2019-04-26T17:52:07.541Z,1.57
2019-04-26T17:54:46.712Z,1.17
2019-04-26T17:59:47.482Z,1.40
2019-04-26T18:02:25.762Z,1.65
2019-04-26T18:04:57.856Z,1.60
2019-04-26T18:07:37.558Z,1.62
2019-04-26T18:09:50.690Z,1.92
2019-04-26T18:12:22.701Z,1.90
2019-04-26T18:14:53.786Z,1.62
2019-04-26T18:17:38.905Z,1.75
2019-04-26T18:20:21.150Z,1.90
2019-04-26T18:23:05.193Z,1.70
2019-04-26T18:28:04.651Z,2.02
2019-04-26T18:30:34.902Z,1.25
2019-04-26T18:33:05.559Z,1.20
2019-04-26T18:35:36.046Z,1.67
2019-04-26T18:38:08.560Z,1.30
2019-04-26T18:40:57.208Z,1.40
2019-04-26T18:43:12.541Z,1.10
2019-04-26T18:45:44.403Z,1.15
2019-04-26T18:48:15.055Z,1.32
2019-04-26T18:50:46.056Z,1.90
2019-04-26T18:53:16.124Z,1.52
2019-04-26T18:55:48.002Z,1.00
2019-04-26T18:58:18.484Z,1.10
2019-04-26T19:00:50.510Z,1.02
2019-04-26T19:05:49.732Z,1.50
2019-04-26T19:08:20.895Z,1.22
2019-04-26T19:10:59.216Z,1.30
2019-04-26T19:13:36.438Z,0.98
2019-04-26T19:16:10.624Z,1.42
2019-04-26T19:18:53.208Z,1.42
2019-04-26T19:21:40.661Z,0.95
2019-04-26T19:24:17.221Z,1.07
2019-04-26T19:26:45.363Z,0.90
2019-04-26T19:29:18.055Z,1.25
2019-04-26T19:31:46.518Z,0.90
2019-04-26T19:34:17.792Z,0.98
2019-04-26T19:36:47.715Z,1.35
2019-04-26T19:39:22.841Z,0.98
2019-04-26T19:41:51.988Z,1.20
2019-04-26T19:44:24.074Z,0.93
2019-04-26T19:47:10.010Z,1.00
2019-04-26T19:49:41.445Z,0.95
2019-04-26T19:52:12.640Z,1.10
2019-04-26T19:54:46.543Z,0.93
2019-04-26T19:57:21.709Z,1.20
2019-04-26T19:59:52.604Z,1.10
2019-04-26T20:02:22.429Z,0.95
2019-04-26T20:04:52.177Z,1.02
2019-04-26T20:07:24.233Z,1.17
2019-04-26T20:09:56.359Z,1.22
2019-04-26T20:12:25.330Z,1.17
2019-04-26T20:14:58.474Z,0.90
2019-04-26T20:17:38.539Z,1.00
2019-04-26T20:20:18.974Z,0.93
2019-04-26T20:22:42.011Z,1.00
2019-04-26T20:25:12.001Z,1.15
2019-04-26T20:27:41.828Z,1.20
2019-04-26T20:30:13.451Z,0.90
2019-04-26T20:32:45.963Z,1.40
2019-04-26T20:35:26.939Z,0.90
2019-04-26T20:37:56.286Z,1.00
2019-04-26T20:40:25.811Z,1.37
2019-04-26T20:43:01.728Z,0.90
2019-04-26T20:45:38.722Z,0.70
2019-04-26T20:47:58.321Z,0.88
2019-04-26T20:50:32.637Z,0.72
2019-04-26T20:53:00.940Z,0.75
2019-04-26T20:55:34.510Z,0.70
2019-04-26T20:58:05.779Z,0.65
2019-04-26T21:00:36.557Z,0.82
2019-04-26T21:03:06.339Z,0.90
2019-04-26T21:05:45.909Z,0.88
2019-04-26T21:08:08.353Z,0.80
2019-04-26T21:10:38.082Z,0.80
2019-04-26T21:13:08.819Z,0.80
2019-04-26T21:15:38.590Z,0.70
2019-04-26T21:18:08.383Z,0.72
2019-04-26T21:20:38.148Z,0.80
2019-04-26T21:23:07.929Z,1.10
2019-04-26T21:25:39.224Z,0.80
2019-04-26T21:28:11.598Z,0.87
2019-04-26T21:30:59.127Z,0.98
2019-04-26T21:33:35.250Z,0.80
2019-04-26T21:36:08.705Z,1.07
2019-04-26T21:38:45.555Z,0.80
2019-04-26T21:41:19.358Z,0.85
2019-04-26T21:43:49.018Z,0.72
2019-04-26T21:46:20.020Z,0.75
2019-04-26T21:48:53.457Z,1.70
2019-04-26T21:51:23.195Z,1.07
2019-04-26T21:53:53.085Z,1.00
2019-04-26T21:56:23.542Z,0.80
2019-04-26T21:58:53.450Z,0.82
2019-04-26T22:01:25.255Z,0.88
2019-04-26T22:03:58.273Z,0.80
2019-04-26T22:06:28.674Z,0.70
2019-04-26T22:09:14.497Z,0.75
2019-04-26T22:11:44.472Z,0.75
2019-04-26T22:14:20.174Z,0.70
2019-04-26T22:17:05.526Z,0.72
2019-04-26T22:19:37.035Z,1.05
2019-04-26T22:22:06.910Z,1.05
2019-04-26T22:24:43.937Z,0.82
2019-04-26T22:27:17.368Z,0.93
2019-04-26T22:29:47.632Z,1.20
2019-04-26T22:32:19.103Z,0.98
2019-04-26T22:34:48.222Z,1.10
2019-04-26T22:37:29.154Z,1.05
2019-04-26T22:39:49.310Z,0.98
2019-04-26T22:42:19.856Z,1.20
2019-04-26T22:44:54.001Z,0.90
2019-04-26T22:47:40.860Z,1.20
2019-04-26T22:50:07.161Z,1.17
2019-04-26T22:52:38.404Z,1.15
2019-04-26T22:55:09.210Z,1.07
2019-04-26T22:57:38.740Z,1.10
2019-04-26T23:00:08.827Z,1.20
2019-04-26T23:02:38.479Z,0.80
2019-04-26T23:05:08.407Z,1.10
2019-04-26T23:07:38.972Z,1.15
2019-04-26T23:10:10.498Z,1.00
2019-04-26T23:12:57.955Z,1.27
2019-04-26T23:15:47.813Z,1.40
2019-04-26T23:18:24.988Z,1.30
2019-04-26T23:20:56.234Z,1.00
2019-04-26T23:23:25.974Z,1.43
2019-04-26T23:25:55.615Z,1.15
2019-04-26T23:28:27.696Z,1.20
2019-04-26T23:30:56.826Z,1.07
2019-04-26T23:33:26.484Z,1.17
2019-04-26T23:35:56.196Z,1.30
2019-04-26T23:38:25.824Z,1.30
2019-04-26T23:40:57.227Z,1.27
2019-04-26T23:43:27.128Z,1.20
2019-04-26T23:45:56.780Z,1.00
2019-04-26T23:48:26.482Z,1.07
2019-04-26T23:50:59.846Z,1.10
2019-04-26T23:53:27.451Z,1.02
2019-04-26T23:55:57.240Z,1.25
2019-04-26T23:58:26.865Z,1.25
